createdAt,value
2022-09-28T00:01:18.024Z,7.33
2022-09-28T00:03:45.991Z,7.41
2022-09-28T00:06:14.148Z,7.55
2022-09-28T00:08:40.733Z,7.40
2022-09-28T00:11:11.183Z,7.56
2022-09-28T00:13:37.945Z,7.53
2022-09-28T00:16:08.233Z,7.76
2022-09-28T00:18:36.057Z,7.63
2022-09-28T00:21:06.827Z,7.57
2022-09-28T00:23:33.924Z,7.62
2022-09-28T00:26:05.627Z,7.73
2022-09-28T00:28:32.450Z,7.69
2022-09-28T00:30:59.275Z,7.65
2022-09-28T00:33:25.901Z,7.46
2022-09-28T00:35:56.984Z,7.58
2022-09-28T00:38:27.337Z,7.71
2022-09-28T00:40:55.527Z,7.57
2022-09-28T00:43:24.063Z,7.61
2022-09-28T00:45:59.073Z,7.71
2022-09-28T00:48:29.214Z,7.89
2022-09-28T00:50:57.319Z,7.59
2022-09-28T00:53:31.817Z,7.58
2022-09-28T00:56:07.442Z,7.52
2022-09-28T00:58:38.788Z,7.54
2022-09-28T01:01:05.701Z,7.60
2022-09-28T01:03:33.606Z,7.84
2022-09-28T01:06:02.743Z,7.46
2022-09-28T01:08:31.669Z,7.80
2022-09-28T01:10:59.908Z,7.93
2022-09-28T01:13:27.142Z,7.73
2022-09-28T01:15:59.355Z,7.52
2022-09-28T01:18:30.746Z,7.62
2022-09-28T01:21:05.430Z,7.56
2022-09-28T01:24:00.254Z,7.48
2022-09-28T01:26:51.549Z,7.61
2022-09-28T01:29:33.430Z,7.70
2022-09-28T01:32:24.872Z,7.70
2022-09-28T01:35:18.435Z,7.61
2022-09-28T01:37:52.572Z,7.63
2022-09-28T01:40:21.676Z,7.74
2022-09-28T01:42:53.178Z,7.85
2022-09-28T01:45:43.499Z,8.01
2022-09-28T01:48:13.168Z,7.94
2022-09-28T01:50:42.207Z,8.03
2022-09-28T01:53:43.299Z,7.77
2022-09-28T01:56:22.287Z,7.73
2022-09-28T01:58:57.863Z,7.67
2022-09-28T02:01:34.310Z,7.76
2022-09-28T02:04:08.659Z,7.79
2022-09-28T02:06:41.853Z,7.97
2022-09-28T02:09:13.376Z,8.00
2022-09-28T02:11:46.707Z,8.08
2022-09-28T02:14:17.013Z,7.82
2022-09-28T02:16:44.936Z,7.75
2022-09-28T02:19:25.737Z,7.91
2022-09-28T02:22:23.326Z,7.95
2022-09-28T02:24:58.335Z,7.98
2022-09-28T02:27:34.154Z,7.86
2022-09-28T02:30:01.403Z,7.81
2022-09-28T02:32:29.435Z,7.81
2022-09-28T02:34:55.888Z,7.86
2022-09-28T02:37:22.523Z,7.68
2022-09-28T02:39:48.915Z,7.96
2022-09-28T02:42:27.476Z,8.05
2022-09-28T02:45:02.857Z,8.21
2022-09-28T02:47:46.890Z,8.23
2022-09-28T02:50:19.256Z,8.05
2022-09-28T02:52:57.524Z,7.92
2022-09-28T02:55:38.422Z,8.03
2022-09-28T02:58:27.860Z,7.78
2022-09-28T03:01:27.141Z,7.89
2022-09-28T03:04:12.325Z,7.88
2022-09-28T03:06:53.860Z,7.82
2022-09-28T03:09:26.799Z,7.76
2022-09-28T03:11:58.693Z,7.73
2022-09-28T03:14:25.398Z,7.85
2022-09-28T03:16:51.790Z,7.76
2022-09-28T03:19:23.270Z,8.02
2022-09-28T03:21:49.807Z,8.11
2022-09-28T03:24:16.183Z,8.08
2022-09-28T03:26:42.563Z,8.22
2022-09-28T03:29:08.929Z,7.97
2022-09-28T03:31:35.363Z,8.18
2022-09-28T03:34:01.993Z,8.11
2022-09-28T03:36:28.380Z,7.98
2022-09-28T03:38:59.372Z,8.02
2022-09-28T03:41:27.703Z,8.20
2022-09-28T03:43:54.052Z,8.30
2022-09-28T03:46:20.505Z,8.27
2022-09-28T03:48:47.023Z,8.21
2022-09-28T03:51:14.069Z,8.12
2022-09-28T03:53:40.699Z,8.20
2022-09-28T03:56:11.743Z,8.13
2022-09-28T03:58:38.154Z,7.92
2022-09-28T04:01:07.049Z,8.05
2022-09-28T04:03:33.890Z,8.14
2022-09-28T04:06:01.184Z,8.09
2022-09-28T04:08:28.536Z,8.08
2022-09-28T04:10:59.302Z,8.20
2022-09-28T04:13:26.277Z,8.22
2022-09-28T04:15:54.655Z,7.93
2022-09-28T04:18:21.523Z,8.05
2022-09-28T04:20:48.148Z,7.92
2022-09-28T04:23:15.604Z,7.95
2022-09-28T04:25:42.518Z,7.98
2022-09-28T04:28:27.899Z,7.94
2022-09-28T04:30:54.280Z,7.95
2022-09-28T04:33:20.784Z,7.89
2022-09-28T04:35:47.235Z,7.87
2022-09-28T04:38:13.611Z,7.87
2022-09-28T04:40:40.288Z,7.88
2022-09-28T04:43:06.785Z,7.92
2022-09-28T04:45:33.262Z,7.87
2022-09-28T04:47:59.685Z,7.88
2022-09-28T04:50:26.302Z,7.87
2022-09-28T04:52:52.769Z,7.89
2022-09-28T04:55:20.514Z,7.85
2022-09-28T04:57:47.034Z,7.82
2022-09-28T05:00:14.011Z,7.54
2022-09-28T05:02:40.395Z,7.64
2022-09-28T05:05:07.273Z,7.75
2022-09-28T05:07:33.671Z,7.84
2022-09-28T05:10:00.583Z,7.73
2022-09-28T05:12:27.056Z,7.77
2022-09-28T05:14:53.399Z,7.80
2022-09-28T05:17:19.935Z,7.87
2022-09-28T05:19:46.437Z,7.91
2022-09-28T05:22:14.781Z,7.79
2022-09-28T05:24:41.617Z,7.61
2022-09-28T05:27:08.269Z,7.59
2022-09-28T05:29:34.798Z,7.42
2022-09-28T05:32:01.668Z,7.80
2022-09-28T05:34:28.849Z,7.49
2022-09-28T05:36:55.286Z,7.70
2022-09-28T05:39:21.630Z,7.66
2022-09-28T05:41:48.145Z,7.79
2022-09-28T05:44:14.514Z,7.87
2022-09-28T05:46:40.979Z,7.98
2022-09-28T05:49:07.360Z,7.87
2022-09-28T05:51:33.768Z,7.89
2022-09-28T05:54:05.389Z,7.89
2022-09-28T05:56:41.392Z,8.01
2022-09-28T05:59:07.850Z,7.99
2022-09-28T06:01:34.327Z,8.07
2022-09-28T06:04:01.055Z,8.14
2022-09-28T06:06:27.491Z,7.92
2022-09-28T06:08:54.285Z,8.11
2022-09-28T06:11:20.723Z,7.97
2022-09-28T06:13:47.255Z,7.80
2022-09-28T06:16:16.492Z,7.83
2022-09-28T06:18:42.981Z,8.03
2022-09-28T06:21:10.916Z,8.02
2022-09-28T06:23:39.995Z,7.98
2022-09-28T06:26:07.886Z,8.07
2022-09-28T06:28:34.362Z,7.98
2022-09-28T06:31:01.647Z,8.02
2022-09-28T06:33:28.135Z,8.06
2022-09-28T06:35:54.519Z,7.82
2022-09-28T06:38:21.954Z,8.02
2022-09-28T06:40:48.405Z,8.06
2022-09-28T06:43:15.376Z,8.17
2022-09-28T06:45:43.009Z,8.47
2022-09-28T06:48:10.667Z,8.97
2022-09-28T06:50:40.704Z,8.71
2022-09-28T06:53:09.453Z,8.78
2022-09-28T06:55:38.791Z,8.68
2022-09-28T06:58:09.427Z,8.59
2022-09-28T07:00:37.778Z,8.85
2022-09-28T07:03:11.272Z,9.10
2022-09-28T07:05:42.171Z,8.86
2022-09-28T07:08:08.701Z,8.74
2022-09-28T07:10:35.232Z,8.81
2022-09-28T07:13:05.240Z,8.82
2022-09-28T07:15:32.909Z,8.80
2022-09-28T07:18:03.566Z,8.58
2022-09-28T07:20:32.351Z,8.19
2022-09-28T07:23:15.840Z,8.19
2022-09-28T07:25:47.798Z,8.53
2022-09-28T07:28:14.785Z,9.16
2022-09-28T07:30:42.209Z,9.17
2022-09-28T07:33:12.563Z,8.87
2022-09-28T07:35:39.105Z,8.72
2022-09-28T07:38:07.084Z,9.29
2022-09-28T07:40:54.088Z,9.56
2022-09-28T07:43:21.254Z,9.27
2022-09-28T07:45:48.946Z,9.42
2022-09-28T07:48:16.268Z,10.01
2022-09-28T07:50:55.135Z,10.58
2022-09-28T07:53:24.795Z,10.17
2022-09-28T07:55:56.188Z,10.17
2022-09-28T07:58:23.281Z,10.10
2022-09-28T08:00:50.877Z,9.94
2022-09-28T08:03:19.062Z,9.61
2022-09-28T08:05:47.358Z,9.86
2022-09-28T08:08:15.012Z,9.73
2022-09-28T08:10:47.120Z,9.54
2022-09-28T08:13:15.152Z,9.69
2022-09-28T08:15:42.430Z,9.38
2022-09-28T08:18:09.242Z,9.20
2022-09-28T08:20:53.979Z,9.45
2022-09-28T08:23:20.938Z,9.73
2022-09-28T08:25:50.879Z,9.85
2022-09-28T08:28:17.973Z,10.07
2022-09-28T08:30:47.004Z,10.04
2022-09-28T08:33:15.186Z,9.71
2022-09-28T08:35:42.291Z,9.91
2022-09-28T08:38:09.670Z,9.32
2022-09-28T08:40:54.913Z,9.46
2022-09-28T08:43:47.318Z,9.50
2022-09-28T08:46:16.927Z,9.37
2022-09-28T08:49:20.624Z,9.41
2022-09-28T08:51:51.223Z,9.98
2022-09-28T08:54:31.679Z,9.46
2022-09-28T08:57:14.134Z,10.50
2022-09-28T08:59:43.309Z,10.54
2022-09-28T09:02:22.191Z,10.50
2022-09-28T09:04:51.579Z,10.56
2022-09-28T09:07:39.400Z,10.88
2022-09-28T09:10:09.136Z,10.06
2022-09-28T09:15:44.645Z,11.20
2022-09-28T09:18:19.903Z,11.63
2022-09-28T09:20:58.565Z,11.32
2022-09-28T09:23:35.360Z,10.76
2022-09-28T09:26:15.453Z,10.60
2022-09-28T09:29:05.129Z,10.04
2022-09-28T09:31:57.495Z,9.76
2022-09-28T09:34:33.225Z,9.53
2022-09-28T09:37:17.981Z,9.62
2022-09-28T09:40:04.978Z,9.42
2022-09-28T09:42:52.502Z,9.78
2022-09-28T09:45:56.048Z,9.66
2022-09-28T09:48:29.975Z,9.35
2022-09-28T09:51:11.778Z,9.67
2022-09-28T09:53:48.869Z,9.93
2022-09-28T09:56:21.625Z,9.49
2022-09-28T09:59:00.692Z,9.67
2022-09-28T10:01:34.528Z,10.34
2022-09-28T10:04:04.792Z,10.48
2022-09-28T10:06:36.590Z,10.18
2022-09-28T10:09:41.153Z,11.17
2022-09-28T10:12:15.236Z,11.75
2022-09-28T10:14:42.287Z,11.47
2022-09-28T10:17:14.572Z,13.18
2022-09-28T10:19:42.570Z,13.14
2022-09-28T10:22:19.234Z,13.58
2022-09-28T10:24:56.319Z,13.26
2022-09-28T10:27:30.589Z,13.33
2022-09-28T10:30:25.528Z,12.22
2022-09-28T10:32:55.530Z,11.24
2022-09-28T10:35:29.469Z,11.73
2022-09-28T10:38:06.571Z,12.02
2022-09-28T10:40:37.364Z,12.26
2022-09-28T10:43:08.195Z,12.19
2022-09-28T10:45:37.132Z,12.30
2022-09-28T10:48:18.051Z,11.59
2022-09-28T10:51:06.926Z,11.71
2022-09-28T10:53:36.981Z,11.55
2022-09-28T10:56:08.714Z,11.45
2022-09-28T10:58:40.618Z,11.43
2022-09-28T11:01:16.426Z,11.39
2022-09-28T11:03:54.784Z,11.55
2022-09-28T11:06:27.975Z,12.16
2022-09-28T11:08:57.928Z,12.57
2022-09-28T11:11:27.452Z,11.39
2022-09-28T11:14:00.347Z,11.03
2022-09-28T11:16:35.933Z,10.99
2022-09-28T11:19:20.716Z,11.22
2022-09-28T11:21:47.333Z,11.03
2022-09-28T11:24:23.097Z,10.90
2022-09-28T11:26:52.841Z,10.98
2022-09-28T11:29:23.837Z,10.82
2022-09-28T11:31:51.422Z,11.27
2022-09-28T11:34:41.499Z,12.06
2022-09-28T11:37:28.622Z,11.80
2022-09-28T11:40:26.804Z,12.55
2022-09-28T11:43:28.479Z,12.64
2022-09-28T11:46:02.301Z,12.54
2022-09-28T11:48:58.069Z,12.77
2022-09-28T11:51:30.327Z,12.09
2022-09-28T11:54:14.594Z,12.48
2022-09-28T11:56:49.025Z,12.40
2022-09-28T11:59:30.650Z,11.97
2022-09-28T12:02:00.643Z,12.64
2022-09-28T12:04:41.251Z,12.41
2022-09-28T12:07:22.371Z,12.10
2022-09-28T12:09:55.782Z,12.09
2022-09-28T12:12:31.495Z,12.73
2022-09-28T12:15:05.413Z,13.26
2022-09-28T12:17:40.454Z,16.99
2022-09-28T12:20:18.788Z,17.69
2022-09-28T12:22:53.461Z,17.51
2022-09-28T12:25:23.087Z,17.63
2022-09-28T12:27:53.922Z,16.97
2022-09-28T12:30:25.187Z,16.28
2022-09-28T12:33:09.302Z,17.28
2022-09-28T12:35:53.382Z,17.90
2022-09-28T12:38:31.937Z,15.24
2022-09-28T12:41:16.622Z,14.84
2022-09-28T12:44:13.178Z,14.48
2022-09-28T12:46:53.765Z,14.61
2022-09-28T12:50:33.332Z,14.18
2022-09-28T12:52:43.343Z,12.37
2022-09-28T12:55:42.397Z,12.61
2022-09-28T12:58:15.172Z,12.85
2022-09-28T13:01:12.281Z,13.19
2022-09-28T13:03:41.154Z,13.19
2022-09-28T13:06:22.299Z,13.36
2022-09-28T13:08:48.707Z,13.19
2022-09-28T13:11:20.782Z,12.90
2022-09-28T13:14:03.043Z,13.29
2022-09-28T13:17:10.961Z,13.90
2022-09-28T13:19:44.030Z,17.56
2022-09-28T13:22:35.590Z,21.43
2022-09-28T13:25:10.432Z,23.99
2022-09-28T13:28:04.445Z,25.66
2022-09-28T13:30:34.304Z,26.31
2022-09-28T13:33:04.091Z,26.15
2022-09-28T13:35:33.181Z,24.09
2022-09-28T13:38:17.783Z,20.57
2022-09-28T13:41:06.117Z,19.43
2022-09-28T13:44:06.982Z,18.68
2022-09-28T13:47:08.300Z,18.27
2022-09-28T13:50:19.185Z,17.76
2022-09-28T13:52:52.855Z,20.42
2022-09-28T13:56:00.827Z,20.87
2022-09-28T13:58:42.079Z,20.58
2022-09-28T14:01:18.006Z,21.19
2022-09-28T14:04:19.094Z,20.26
2022-09-28T14:07:16.663Z,18.65
2022-09-28T14:09:48.554Z,17.75
2022-09-28T14:12:33.559Z,17.14
2022-09-28T14:15:01.269Z,16.65
2022-09-28T14:17:27.737Z,16.30
2022-09-28T14:20:00.105Z,14.75
2022-09-28T14:22:55.154Z,14.71
2022-09-28T14:25:28.127Z,15.20
2022-09-28T14:28:25.082Z,15.08
2022-09-28T14:30:56.739Z,15.30
2022-09-28T14:33:30.652Z,15.30
2022-09-28T14:36:06.499Z,14.90
2022-09-28T14:39:02.898Z,14.06
2022-09-28T14:41:35.547Z,14.14
2022-09-28T14:44:06.397Z,13.71
2022-09-28T14:46:35.378Z,13.96
2022-09-28T14:49:17.428Z,14.14
2022-09-28T14:51:45.038Z,14.03
2022-09-28T14:54:15.155Z,13.08
2022-09-28T14:56:57.025Z,13.14
2022-09-28T14:59:30.493Z,13.26
2022-09-28T15:02:19.622Z,13.36
2022-09-28T15:05:06.475Z,13.41
2022-09-28T15:07:49.523Z,13.66
2022-09-28T15:10:31.229Z,13.88
2022-09-28T15:13:03.347Z,13.82
2022-09-28T15:15:40.467Z,14.21
2022-09-28T15:18:07.086Z,14.09
2022-09-28T15:20:38.061Z,14.08
2022-09-28T15:23:04.554Z,13.94
2022-09-28T15:25:32.751Z,13.84
2022-09-28T15:28:13.892Z,13.62
2022-09-28T15:30:40.462Z,13.17
2022-09-28T15:33:51.669Z,12.96
2022-09-28T15:36:28.824Z,13.19
2022-09-28T15:39:02.706Z,12.74
2022-09-28T15:41:29.153Z,12.28
2022-09-28T15:44:28.999Z,12.89
2022-09-28T15:47:07.537Z,12.65
2022-09-28T15:49:53.120Z,12.94
2022-09-28T15:52:42.791Z,13.09
2022-09-28T15:55:24.125Z,13.38
2022-09-28T15:58:03.936Z,13.25
2022-09-28T16:00:31.480Z,13.06
2022-09-28T16:03:07.091Z,12.18
2022-09-28T16:05:46.548Z,12.49
2022-09-28T16:08:27.223Z,12.93
2022-09-28T16:11:16.976Z,12.77
2022-09-28T16:13:57.876Z,12.59
2022-09-28T16:16:31.111Z,12.55
2022-09-28T16:19:01.076Z,12.21
2022-09-28T16:21:36.599Z,11.96
2022-09-28T16:24:03.388Z,12.10
2022-09-28T16:26:37.269Z,11.91
2022-09-28T16:29:24.683Z,12.03
2022-09-28T16:31:53.028Z,11.92
2022-09-28T16:34:23.671Z,11.78
2022-09-28T16:36:50.602Z,11.69
2022-09-28T16:39:18.868Z,11.76
2022-09-28T16:41:56.015Z,11.55
2022-09-28T16:44:28.343Z,11.48
2022-09-28T16:46:57.490Z,11.51
2022-09-28T16:49:25.435Z,11.57
2022-09-28T16:51:52.470Z,11.52
2022-09-28T16:54:40.403Z,11.33
2022-09-28T16:57:09.592Z,11.19
2022-09-28T16:59:38.285Z,11.28
2022-09-28T17:05:07.052Z,11.14
2022-09-28T17:07:34.059Z,11.09
2022-09-28T17:10:00.440Z,10.99
2022-09-28T17:12:29.095Z,10.97
2022-09-28T17:14:55.474Z,10.94
2022-09-28T17:17:22.659Z,10.86
2022-09-28T17:19:49.074Z,10.84
2022-09-28T17:22:16.700Z,10.70
2022-09-28T17:24:45.433Z,10.61
2022-09-28T17:27:18.645Z,10.60
2022-09-28T17:29:45.055Z,10.52
2022-09-28T17:32:18.184Z,10.49
2022-09-28T17:34:51.521Z,10.44
2022-09-28T17:37:22.514Z,10.44
2022-09-28T17:39:48.963Z,10.49
2022-09-28T17:42:17.152Z,10.49
2022-09-28T17:44:43.571Z,10.48
2022-09-28T17:47:11.215Z,10.47
2022-09-28T17:49:38.161Z,10.39
2022-09-28T17:52:05.489Z,10.31
2022-09-28T17:54:32.593Z,10.29
2022-09-28T17:56:59.180Z,10.25
2022-09-28T17:59:27.427Z,10.11
2022-09-28T18:01:53.837Z,10.12
2022-09-28T18:04:40.168Z,9.98
2022-09-28T18:07:06.813Z,9.97
2022-09-28T18:09:33.202Z,9.97
2022-09-28T18:12:04.036Z,9.92
2022-09-28T18:14:30.531Z,9.96
2022-09-28T18:16:56.953Z,9.87
2022-09-28T18:19:23.340Z,9.89
2022-09-28T18:21:49.755Z,9.87
2022-09-28T18:24:16.329Z,9.85
2022-09-28T18:26:42.819Z,9.78
2022-09-28T18:29:09.224Z,9.79
2022-09-28T18:31:36.676Z,9.73
2022-09-28T18:34:03.331Z,9.72
2022-09-28T18:36:31.984Z,9.72
2022-09-28T18:39:00.921Z,9.67
2022-09-28T18:41:28.309Z,9.60
2022-09-28T18:44:00.737Z,9.64
2022-09-28T18:46:28.682Z,9.52
2022-09-28T18:48:55.884Z,9.53
2022-09-28T18:51:22.537Z,9.52
2022-09-28T18:53:49.007Z,9.50
2022-09-28T18:56:20.977Z,9.51
2022-09-28T18:58:52.651Z,9.47
2022-09-28T19:01:36.513Z,9.41
2022-09-28T19:04:05.926Z,9.34
2022-09-28T19:06:34.374Z,9.35
2022-09-28T19:09:01.401Z,9.35
2022-09-28T19:11:28.612Z,9.36
2022-09-28T19:13:56.067Z,9.31
2022-09-28T19:16:25.614Z,9.26
2022-09-28T19:18:53.468Z,9.21
2022-09-28T19:21:20.573Z,9.13
2022-09-28T19:23:49.847Z,9.08
2022-09-28T19:26:21.063Z,9.07
2022-09-28T19:28:48.717Z,9.05
2022-09-28T19:31:15.704Z,9.07
2022-09-28T19:33:42.593Z,9.05
2022-09-28T19:36:12.263Z,8.97
2022-09-28T19:38:39.459Z,8.91
2022-09-28T19:41:39.581Z,8.93
2022-09-28T19:44:21.020Z,8.82
2022-09-28T19:46:47.471Z,8.80
2022-09-28T19:49:21.109Z,8.71
2022-09-28T19:52:17.890Z,8.69
2022-09-28T19:54:37.537Z,8.72
2022-09-28T19:57:10.482Z,8.69
2022-09-28T19:59:37.578Z,8.67
2022-09-28T20:02:06.936Z,8.68
2022-09-28T20:04:33.479Z,8.60
2022-09-28T20:07:00.222Z,8.55
2022-09-28T20:09:26.619Z,8.55
2022-09-28T20:11:53.229Z,8.53
2022-09-28T20:14:20.168Z,8.77
2022-09-28T20:16:48.120Z,8.55
2022-09-28T20:19:14.799Z,8.63
2022-09-28T20:21:41.289Z,8.69
2022-09-28T20:24:08.617Z,8.81
2022-09-28T20:26:37.538Z,8.81
2022-09-28T20:29:07.521Z,8.93
2022-09-28T20:31:38.245Z,8.83
2022-09-28T20:34:06.070Z,8.81
2022-09-28T20:36:32.593Z,8.77
2022-09-28T20:39:03.393Z,8.84
2022-09-28T20:41:36.440Z,8.97
2022-09-28T20:44:05.935Z,9.03
2022-09-28T20:46:34.669Z,9.00
2022-09-28T20:49:01.586Z,9.02
2022-09-28T20:51:28.102Z,8.93
2022-09-28T20:53:56.559Z,8.80
2022-09-28T20:56:24.983Z,8.73
2022-09-28T20:58:52.392Z,8.48
2022-09-28T21:01:23.859Z,8.49
2022-09-28T21:03:55.731Z,8.44
2022-09-28T21:06:24.401Z,8.47
2022-09-28T21:08:50.915Z,8.43
2022-09-28T21:11:19.777Z,8.29
2022-09-28T21:13:47.487Z,8.20
2022-09-28T21:16:17.967Z,8.11
2022-09-28T21:18:44.949Z,8.29
2022-09-28T21:21:17.026Z,8.36
2022-09-28T21:23:46.832Z,8.42
2022-09-28T21:26:24.653Z,8.41
2022-09-28T21:28:55.935Z,8.37
2022-09-28T21:31:28.816Z,8.31
2022-09-28T21:33:56.423Z,8.20
2022-09-28T21:36:22.775Z,8.09
2022-09-28T21:38:49.323Z,7.98
2022-09-28T21:41:15.768Z,7.90
2022-09-28T21:43:42.270Z,7.72
2022-09-28T21:46:09.807Z,7.39
2022-09-28T21:48:36.203Z,7.37
2022-09-28T21:51:05.385Z,7.39
2022-09-28T21:53:34.327Z,7.41
2022-09-28T21:56:01.993Z,7.25
2022-09-28T21:58:33.472Z,7.23
2022-09-28T22:01:13.028Z,7.16
2022-09-28T22:03:39.669Z,6.99
2022-09-28T22:06:06.749Z,6.92
2022-09-28T22:08:34.067Z,6.87
2022-09-28T22:11:12.294Z,6.83
2022-09-28T22:13:47.071Z,6.92
2022-09-28T22:16:14.988Z,6.97
2022-09-28T22:18:41.630Z,6.88
2022-09-28T22:21:16.385Z,6.82
2022-09-28T22:23:42.926Z,6.77
2022-09-28T22:26:21.453Z,6.63
2022-09-28T22:28:51.119Z,6.52
2022-09-28T22:31:19.747Z,6.43
2022-09-28T22:33:46.625Z,6.44
2022-09-28T22:36:16.596Z,6.38
2022-09-28T22:38:44.578Z,6.38
2022-09-28T22:41:11.604Z,6.26
2022-09-28T22:43:38.148Z,6.24
2022-09-28T22:46:12.317Z,6.24
2022-09-28T22:48:39.201Z,6.14
2022-09-28T22:51:06.660Z,6.14
2022-09-28T22:53:34.853Z,6.15
2022-09-28T22:56:04.811Z,6.05
2022-09-28T22:58:35.508Z,5.99
2022-09-28T23:01:14.053Z,5.92
2022-09-28T23:03:42.011Z,5.93
2022-09-28T23:06:09.525Z,5.93
2022-09-28T23:08:36.027Z,5.89
2022-09-28T23:11:03.393Z,5.86
2022-09-28T23:13:31.120Z,5.87
2022-09-28T23:15:58.981Z,5.92
2022-09-28T23:18:28.430Z,6.09
2022-09-28T23:21:03.772Z,6.13
2022-09-28T23:23:30.387Z,6.13
2022-09-28T23:25:57.041Z,6.13
2022-09-28T23:28:24.785Z,6.16
2022-09-28T23:30:51.977Z,6.23
2022-09-28T23:33:20.169Z,6.08
2022-09-28T23:35:47.123Z,6.07
2022-09-28T23:38:16.489Z,6.07
2022-09-28T23:40:42.994Z,6.08
2022-09-28T23:43:09.403Z,6.12
2022-09-28T23:45:36.033Z,6.16
2022-09-28T23:48:02.586Z,6.19
2022-09-28T23:50:29.443Z,6.27
2022-09-28T23:52:55.847Z,6.25
2022-09-28T23:55:22.233Z,6.16
2022-09-28T23:57:48.622Z,6.16
